createdAt,value
2022-10-13T00:00:55.468Z,13.57
2022-10-13T00:03:06.085Z,14.23
2022-10-13T00:05:08.817Z,15.05
2022-10-13T00:07:10.334Z,17.38
2022-10-13T00:09:11.970Z,16.73
2022-10-13T00:11:18.321Z,17.15
2022-10-13T00:13:20.459Z,17.83
2022-10-13T00:15:22.196Z,15.32
2022-10-13T00:17:24.319Z,19.15
2022-10-13T00:19:25.955Z,20.25
2022-10-13T00:21:27.692Z,15.07
2022-10-13T00:23:29.543Z,20.52
2022-10-13T00:25:31.043Z,18.63
2022-10-13T00:27:32.571Z,18.48
2022-10-13T00:29:34.376Z,18.23
2022-10-13T00:31:35.944Z,18.27
2022-10-13T00:33:37.463Z,17.35
2022-10-13T00:35:46.112Z,16.58
2022-10-13T00:37:47.784Z,16.83
2022-10-13T00:39:49.338Z,15.80
2022-10-13T00:41:51.232Z,16.23
2022-10-13T00:44:03.267Z,16.60
2022-10-13T00:46:04.986Z,15.57
2022-10-13T00:48:06.803Z,17.63
2022-10-13T00:50:10.318Z,18.08
2022-10-13T00:52:14.030Z,19.40
2022-10-13T00:54:17.807Z,18.35
2022-10-13T00:56:19.894Z,16.80
2022-10-13T00:58:23.829Z,18.67
2022-10-13T01:00:25.652Z,19.58
2022-10-13T01:02:32.786Z,17.80
2022-10-13T01:04:37.546Z,27.23
2022-10-13T01:06:39.920Z,32.40
2022-10-13T01:08:41.510Z,34.60
2022-10-13T01:10:55.258Z,31.63
2022-10-13T01:13:15.904Z,27.67
2022-10-13T01:15:22.684Z,27.10
2022-10-13T01:17:34.304Z,34.97
2022-10-13T01:19:59.415Z,39.78
2022-10-13T01:22:13.149Z,34.83
2022-10-13T01:24:17.557Z,32.45
2022-10-13T01:26:34.326Z,35.60
2022-10-13T01:28:54.831Z,24.48
2022-10-13T01:31:02.907Z,24.55
2022-10-13T01:33:09.434Z,23.73
2022-10-13T01:35:18.413Z,22.17
2022-10-13T01:37:38.449Z,22.38
2022-10-13T01:39:52.300Z,22.50
2022-10-13T01:41:56.424Z,22.33
2022-10-13T01:44:03.190Z,22.83
2022-10-13T01:46:08.347Z,22.85
2022-10-13T01:48:10.653Z,22.27
2022-10-13T01:50:13.512Z,21.05
2022-10-13T01:52:18.180Z,21.70
2022-10-13T01:54:19.978Z,21.23
2022-10-13T01:56:21.604Z,21.13
2022-10-13T01:58:24.168Z,20.42
2022-10-13T02:00:26.357Z,19.83
2022-10-13T02:02:43.080Z,20.03
2022-10-13T02:04:47.499Z,20.95
2022-10-13T02:06:54.083Z,20.92
2022-10-13T02:09:02.472Z,22.40
2022-10-13T02:11:15.379Z,28.45
2022-10-13T02:13:19.460Z,23.42
2022-10-13T02:15:25.869Z,30.88
2022-10-13T02:17:28.810Z,30.83
2022-10-13T02:19:33.355Z,30.17
2022-10-13T02:21:35.835Z,31.27
2022-10-13T02:23:37.725Z,32.15
2022-10-13T02:25:39.851Z,32.05
2022-10-13T02:27:41.589Z,31.70
2022-10-13T02:29:50.576Z,30.25
2022-10-13T02:31:54.798Z,32.50
2022-10-13T02:33:56.342Z,30.90
2022-10-13T02:35:58.102Z,29.30
2022-10-13T02:37:59.765Z,31.50
2022-10-13T02:40:01.625Z,28.23
2022-10-13T02:42:04.029Z,28.85
2022-10-13T02:44:06.142Z,28.10
2022-10-13T02:46:07.680Z,28.47
2022-10-13T02:48:09.416Z,30.00
2022-10-13T02:50:11.268Z,28.38
2022-10-13T02:52:12.845Z,29.23
2022-10-13T02:54:14.621Z,28.65
2022-10-13T02:56:16.130Z,24.08
2022-10-13T02:58:17.690Z,23.08
2022-10-13T03:00:19.518Z,23.67
2022-10-13T03:02:21.460Z,25.60
2022-10-13T03:04:23.057Z,25.98
2022-10-13T03:06:24.822Z,25.58
2022-10-13T03:08:26.974Z,30.67
2022-10-13T03:10:29.566Z,33.90
2022-10-13T03:12:31.403Z,43.28
2022-10-13T03:14:33.105Z,43.22
2022-10-13T03:16:34.628Z,46.33
2022-10-13T03:18:36.355Z,40.05
2022-10-13T03:20:37.978Z,42.95
2022-10-13T03:22:39.610Z,47.38
2022-10-13T03:24:42.044Z,49.45
2022-10-13T03:26:43.719Z,49.22
2022-10-13T03:28:48.754Z,49.92
2022-10-13T03:30:51.113Z,50.92
2022-10-13T03:32:52.947Z,48.23
2022-10-13T03:34:54.702Z,50.92
2022-10-13T03:36:56.479Z,51.08
2022-10-13T03:38:58.096Z,49.58
2022-10-13T03:41:10.389Z,51.85
2022-10-13T03:43:12.148Z,51.95
2022-10-13T03:45:13.783Z,51.25
2022-10-13T03:47:15.311Z,53.30
2022-10-13T03:49:18.739Z,52.40
2022-10-13T03:51:20.991Z,52.58
2022-10-13T03:53:22.764Z,51.90
2022-10-13T03:55:24.795Z,51.55
2022-10-13T03:57:26.403Z,50.22
2022-10-13T03:59:34.155Z,52.17
2022-10-13T04:01:39.151Z,50.47
2022-10-13T04:03:40.735Z,51.42
2022-10-13T04:05:42.469Z,50.72
2022-10-13T04:07:44.224Z,52.22
2022-10-13T04:09:45.814Z,51.75
2022-10-13T04:11:49.489Z,52.60
2022-10-13T04:13:51.646Z,51.95
2022-10-13T04:15:53.238Z,53.17
2022-10-13T04:17:54.796Z,53.67
2022-10-13T04:19:56.507Z,55.10
2022-10-13T04:21:58.105Z,53.17
2022-10-13T04:24:00.018Z,53.05
2022-10-13T04:26:02.035Z,53.33
2022-10-13T04:28:04.522Z,52.10
2022-10-13T04:30:06.765Z,52.20
2022-10-13T04:32:08.543Z,52.30
2022-10-13T04:34:10.373Z,50.80
2022-10-13T04:36:12.637Z,53.05
2022-10-13T04:38:14.361Z,53.13
2022-10-13T04:40:16.214Z,52.03
2022-10-13T04:42:18.104Z,49.92
2022-10-13T04:44:20.245Z,51.22
2022-10-13T04:46:23.382Z,48.95
2022-10-13T04:48:24.923Z,49.95
2022-10-13T04:50:26.747Z,49.65
2022-10-13T04:52:28.356Z,49.03
2022-10-13T04:54:29.855Z,49.95
2022-10-13T04:56:31.784Z,48.08
2022-10-13T04:58:33.375Z,48.17
2022-10-13T05:00:34.926Z,48.88
2022-10-13T05:02:37.255Z,48.45
2022-10-13T05:04:39.116Z,50.58
2022-10-13T05:07:05.332Z,50.17
2022-10-13T05:09:04.020Z,49.70
2022-10-13T05:11:05.599Z,48.40
2022-10-13T05:13:07.289Z,48.03
2022-10-13T05:15:09.451Z,48.10
2022-10-13T05:17:10.970Z,47.60
2022-10-13T05:19:12.554Z,50.38
2022-10-13T05:21:15.601Z,46.97
2022-10-13T05:23:17.364Z,47.22
2022-10-13T05:25:19.044Z,47.40
2022-10-13T05:27:21.403Z,51.40
2022-10-13T05:29:23.256Z,49.63
2022-10-13T05:31:25.736Z,42.58
2022-10-13T05:33:28.433Z,42.17
2022-10-13T05:35:30.083Z,55.63
2022-10-13T05:37:32.287Z,61.03
2022-10-13T05:39:34.010Z,107.90
2022-10-13T05:41:35.666Z,127.25
2022-10-13T05:43:41.344Z,235.98
2022-10-13T05:45:43.414Z,172.40
2022-10-13T05:47:44.919Z,155.05
2022-10-13T05:49:46.971Z,156.07
2022-10-13T05:51:53.688Z,181.18
2022-10-13T05:53:59.499Z,167.82
2022-10-13T05:56:06.274Z,117.10
2022-10-13T05:58:08.195Z,153.15
2022-10-13T06:00:11.420Z,97.15
2022-10-13T06:02:14.747Z,121.60
2022-10-13T06:04:25.731Z,109.68
2022-10-13T06:06:31.304Z,67.30
2022-10-13T06:08:33.384Z,83.00
2022-10-13T06:10:36.803Z,51.33
2022-10-13T06:12:38.593Z,65.85
2022-10-13T06:14:40.149Z,77.95
2022-10-13T06:16:42.181Z,52.17
2022-10-13T06:18:44.267Z,42.83
2022-10-13T06:20:45.878Z,59.87
2022-10-13T06:22:50.345Z,73.07
2022-10-13T06:24:51.856Z,74.40
2022-10-13T06:26:53.396Z,54.88
2022-10-13T06:28:59.323Z,49.83
2022-10-13T06:31:03.579Z,46.28
2022-10-13T06:33:05.185Z,32.83
2022-10-13T06:35:07.280Z,25.58
2022-10-13T06:37:09.015Z,35.60
2022-10-13T06:39:10.553Z,39.33
2022-10-13T06:41:14.327Z,42.90
2022-10-13T06:43:15.851Z,35.40
2022-10-13T06:45:19.279Z,22.80
2022-10-13T06:47:21.191Z,17.65
2022-10-13T06:49:23.356Z,18.08
2022-10-13T06:51:25.127Z,18.15
2022-10-13T06:53:26.961Z,17.50
2022-10-13T06:55:28.499Z,18.35
2022-10-13T06:57:30.035Z,17.13
2022-10-13T06:59:32.244Z,16.20
2022-10-13T07:01:37.842Z,16.05
2022-10-13T07:03:42.174Z,14.90
2022-10-13T07:05:43.927Z,14.20
2022-10-13T07:07:45.607Z,14.23
2022-10-13T07:09:47.131Z,13.68
2022-10-13T07:11:50.246Z,13.70
2022-10-13T07:13:53.939Z,13.85
2022-10-13T07:15:55.539Z,13.82
2022-10-13T07:17:57.319Z,14.03
2022-10-13T07:20:01.325Z,13.80
2022-10-13T07:22:06.670Z,14.40
2022-10-13T07:24:10.030Z,16.50
2022-10-13T07:26:12.992Z,16.85
2022-10-13T07:28:14.664Z,21.92
2022-10-13T07:30:16.516Z,17.77
2022-10-13T07:32:18.489Z,16.52
2022-10-13T07:34:20.064Z,17.13
2022-10-13T07:36:22.025Z,15.68
2022-10-13T07:38:23.985Z,16.73
2022-10-13T07:40:25.623Z,16.92
2022-10-13T07:42:27.382Z,18.57
2022-10-13T07:44:29.154Z,15.38
2022-10-13T07:46:30.676Z,16.13
2022-10-13T07:48:32.919Z,15.88
2022-10-13T07:50:34.832Z,13.45
2022-10-13T07:52:36.847Z,14.10
2022-10-13T07:54:38.643Z,13.13
2022-10-13T07:56:40.234Z,18.77
2022-10-13T07:58:43.358Z,15.88
2022-10-13T08:00:45.155Z,15.85
2022-10-13T08:02:49.311Z,15.30
2022-10-13T08:04:51.059Z,13.38
2022-10-13T08:06:52.794Z,12.45
2022-10-13T08:08:55.439Z,11.88
2022-10-13T08:11:00.947Z,11.57
2022-10-13T08:13:02.743Z,14.07
2022-10-13T08:15:06.331Z,19.35
2022-10-13T08:17:08.352Z,11.98
2022-10-13T08:19:10.083Z,13.23
2022-10-13T08:23:38.259Z,13.25
2022-10-13T08:25:40.767Z,14.73
2022-10-13T08:27:51.152Z,13.80
2022-10-13T08:29:54.749Z,12.00
2022-10-13T08:33:58.084Z,12.63
2022-10-13T08:35:59.770Z,12.07
2022-10-13T08:38:01.519Z,12.30
2022-10-13T08:40:03.765Z,12.40
2022-10-13T08:42:12.554Z,12.45
2022-10-13T08:44:56.645Z,11.75
2022-10-13T08:46:53.216Z,10.93
2022-10-13T08:48:56.499Z,11.00
2022-10-13T08:51:01.731Z,10.82
2022-10-13T08:53:22.071Z,10.45
2022-10-13T08:55:28.734Z,10.63
2022-10-13T08:57:30.479Z,11.60
2022-10-13T08:59:33.312Z,11.00
2022-10-13T09:01:38.617Z,11.63
2022-10-13T09:03:53.947Z,11.13
2022-10-13T09:05:58.606Z,11.65
2022-10-13T09:08:00.796Z,11.63
2022-10-13T09:10:03.616Z,11.73
2022-10-13T09:12:05.763Z,11.50
2022-10-13T09:14:11.862Z,12.45
2022-10-13T09:16:14.294Z,12.20
2022-10-13T09:18:16.252Z,11.98
2022-10-13T09:20:17.917Z,12.00
2022-10-13T09:22:24.748Z,11.23
2022-10-13T09:24:26.892Z,11.63
2022-10-13T09:26:28.434Z,12.43
2022-10-13T09:28:31.369Z,12.07
2022-10-13T09:30:38.252Z,12.18
2022-10-13T09:32:40.706Z,12.07
2022-10-13T09:34:42.834Z,12.57
2022-10-13T09:36:57.250Z,12.73
2022-10-13T09:39:15.323Z,11.82
2022-10-13T09:41:20.667Z,12.50
2022-10-13T09:43:33.015Z,13.77
2022-10-13T09:45:34.605Z,13.32
2022-10-13T09:47:36.413Z,14.38
2022-10-13T09:49:44.178Z,12.82
2022-10-13T09:51:45.935Z,12.40
2022-10-13T09:53:47.882Z,10.70
2022-10-13T09:55:49.832Z,11.38
2022-10-13T09:57:52.760Z,12.17
2022-10-13T10:01:57.515Z,11.80
2022-10-13T10:04:10.183Z,10.05
2022-10-13T10:06:14.677Z,10.93
2022-10-13T10:08:20.550Z,10.50
2022-10-13T10:10:31.602Z,8.60
2022-10-13T10:12:36.930Z,9.18
2022-10-13T10:14:39.169Z,9.93
2022-10-13T10:16:43.153Z,9.85
2022-10-13T10:19:03.523Z,11.20
2022-10-13T10:21:26.187Z,9.00
2022-10-13T10:23:46.252Z,9.13
2022-10-13T10:25:53.951Z,8.32
2022-10-13T10:28:17.384Z,7.68
2022-10-13T10:30:20.167Z,7.97
2022-10-13T10:32:28.183Z,7.78
2022-10-13T10:34:52.088Z,6.03
2022-10-13T10:37:01.935Z,7.03
2022-10-13T10:39:21.353Z,8.00
2022-10-13T10:41:24.987Z,7.20
2022-10-13T10:43:26.523Z,7.10
2022-10-13T10:45:31.018Z,7.40
2022-10-13T10:47:42.733Z,7.28
2022-10-13T10:49:44.349Z,7.05
2022-10-13T10:51:46.757Z,6.97
2022-10-13T10:53:53.679Z,6.80
2022-10-13T10:56:00.497Z,6.00
2022-10-13T10:58:06.392Z,5.93
2022-10-13T11:00:22.325Z,5.82
2022-10-13T11:02:24.024Z,6.38
2022-10-13T11:04:28.859Z,5.55
2022-10-13T11:06:37.446Z,5.25
2022-10-13T11:08:43.242Z,5.28
2022-10-13T11:10:44.951Z,4.97
2022-10-13T11:12:52.797Z,5.32
2022-10-13T11:14:54.979Z,5.20
2022-10-13T11:17:05.766Z,4.68
2022-10-13T11:19:26.476Z,4.38
2022-10-13T11:21:48.035Z,5.28
2022-10-13T11:23:50.123Z,4.35
2022-10-13T11:25:51.757Z,5.35
2022-10-13T11:27:53.348Z,4.70
2022-10-13T11:29:56.864Z,4.93
2022-10-13T11:31:59.107Z,4.30
2022-10-13T11:34:01.837Z,4.30
2022-10-13T11:36:22.794Z,4.93
2022-10-13T11:38:31.274Z,4.28
2022-10-13T11:40:34.599Z,4.88
2022-10-13T11:42:43.129Z,4.60
2022-10-13T11:45:10.890Z,5.18
2022-10-13T11:47:24.909Z,5.00
2022-10-13T11:49:42.233Z,5.50
2022-10-13T11:51:55.453Z,5.10
2022-10-13T11:55:59.310Z,5.90
2022-10-13T11:58:14.831Z,5.80
2022-10-13T12:00:17.887Z,5.10
2022-10-13T12:02:19.962Z,5.00
2022-10-13T12:04:22.558Z,5.18
2022-10-13T12:06:24.372Z,5.57
2022-10-13T12:08:27.443Z,4.25
2022-10-13T12:10:36.233Z,5.53
2022-10-13T12:12:37.814Z,5.60
2022-10-13T12:14:43.263Z,5.68
2022-10-13T12:19:18.858Z,5.53
2022-10-13T12:21:22.431Z,4.90
2022-10-13T12:23:24.783Z,5.20
2022-10-13T12:25:28.334Z,5.10
2022-10-13T12:27:34.205Z,5.50
2022-10-13T12:29:39.273Z,4.85
2022-10-13T12:31:42.227Z,5.00
2022-10-13T12:33:44.034Z,5.32
2022-10-13T12:35:45.615Z,4.47
2022-10-13T12:37:47.485Z,4.88
2022-10-13T12:39:49.451Z,5.20
2022-10-13T12:41:51.393Z,4.35
2022-10-13T12:43:53.599Z,4.75
2022-10-13T12:45:55.423Z,5.53
2022-10-13T12:47:56.984Z,4.47
2022-10-13T12:50:17.560Z,5.07
2022-10-13T12:52:23.898Z,4.88
2022-10-13T12:54:27.889Z,4.57
2022-10-13T12:56:31.494Z,4.68
2022-10-13T12:58:35.148Z,4.35
2022-10-13T13:00:36.885Z,4.72
2022-10-13T13:02:38.667Z,5.05
2022-10-13T13:04:41.726Z,4.55
2022-10-13T13:06:52.599Z,4.57
2022-10-13T13:09:29.489Z,4.55
2022-10-13T13:11:35.463Z,4.40
2022-10-13T13:13:37.105Z,4.35
2022-10-13T13:15:42.333Z,4.13
2022-10-13T13:17:58.425Z,4.80
2022-10-13T13:20:00.794Z,4.50
2022-10-13T13:22:03.830Z,4.45
2022-10-13T13:24:16.219Z,4.25
2022-10-13T13:26:28.094Z,5.40
2022-10-13T13:28:31.002Z,4.85
2022-10-13T13:30:32.876Z,4.95
2022-10-13T13:32:34.622Z,5.28
2022-10-13T13:34:36.195Z,5.55
2022-10-13T13:36:37.877Z,4.78
2022-10-13T13:38:39.639Z,5.80
2022-10-13T13:40:42.152Z,5.28
2022-10-13T13:42:44.924Z,5.22
2022-10-13T13:44:46.502Z,5.28
2022-10-13T13:46:48.246Z,4.75
2022-10-13T13:48:50.611Z,5.57
2022-10-13T13:50:52.391Z,5.80
2022-10-13T13:52:54.079Z,5.10
2022-10-13T13:54:56.189Z,6.30
2022-10-13T13:56:58.888Z,6.20
2022-10-13T13:59:00.698Z,5.85
2022-10-13T14:01:02.552Z,5.10
2022-10-13T14:03:04.390Z,6.22
2022-10-13T14:05:06.149Z,6.28
2022-10-13T14:07:08.103Z,5.22
2022-10-13T14:09:09.828Z,6.38
2022-10-13T14:11:11.565Z,5.60
2022-10-13T14:13:13.247Z,5.68
2022-10-13T14:15:14.862Z,5.38
2022-10-13T14:17:16.398Z,6.60
2022-10-13T14:19:18.316Z,6.18
2022-10-13T14:21:20.191Z,6.30
2022-10-13T14:23:22.046Z,5.90
2022-10-13T14:25:23.714Z,5.50
2022-10-13T14:27:25.240Z,6.10
2022-10-13T14:29:26.775Z,6.70
2022-10-13T14:31:28.618Z,6.43
2022-10-13T14:33:30.118Z,5.93
2022-10-13T14:35:31.859Z,10.05
2022-10-13T14:37:34.338Z,7.28
2022-10-13T14:39:36.379Z,7.40
2022-10-13T14:41:38.911Z,5.70
2022-10-13T14:43:40.661Z,6.88
2022-10-13T14:45:42.136Z,8.57
2022-10-13T14:47:43.996Z,6.80
2022-10-13T14:49:45.884Z,6.40
2022-10-13T14:51:47.433Z,7.97
2022-10-13T14:53:48.969Z,5.72
2022-10-13T14:55:50.660Z,8.65
2022-10-13T14:57:52.318Z,7.15
2022-10-13T14:59:57.964Z,11.70
2022-10-13T15:02:02.537Z,9.85
2022-10-13T15:04:04.668Z,10.25
2022-10-13T15:06:06.825Z,10.25
2022-10-13T15:08:08.562Z,9.65
2022-10-13T15:10:10.314Z,8.65
2022-10-13T15:12:11.870Z,7.10
2022-10-13T15:14:13.650Z,6.15
2022-10-13T15:16:16.713Z,6.20
2022-10-13T15:18:18.287Z,5.65
2022-10-13T15:20:19.980Z,5.70
2022-10-13T15:22:21.784Z,5.63
2022-10-13T15:24:23.649Z,5.60
2022-10-13T15:26:25.356Z,5.88
2022-10-13T15:28:28.719Z,6.18
2022-10-13T15:30:32.848Z,6.75
2022-10-13T15:32:34.599Z,5.90
2022-10-13T15:34:38.165Z,5.95
2022-10-13T15:36:39.752Z,5.55
2022-10-13T15:38:41.457Z,6.28
2022-10-13T15:40:43.126Z,5.72
2022-10-13T15:42:44.746Z,5.75
2022-10-13T15:47:09.377Z,5.88
2022-10-13T15:49:12.236Z,5.93
2022-10-13T15:51:15.142Z,6.15
2022-10-13T15:53:16.762Z,6.70
2022-10-13T15:55:18.512Z,6.47
2022-10-13T15:57:20.212Z,6.88
2022-10-13T15:59:22.014Z,6.68
2022-10-13T16:01:23.672Z,7.03
2022-10-13T16:03:29.647Z,6.85
2022-10-13T16:05:31.168Z,7.30
2022-10-13T16:07:32.723Z,7.28
2022-10-13T16:09:34.542Z,6.88
2022-10-13T16:11:36.099Z,7.07
2022-10-13T16:13:38.427Z,7.13
2022-10-13T16:15:40.092Z,6.95
2022-10-13T16:17:41.983Z,6.95
2022-10-13T16:19:43.491Z,6.93
2022-10-13T16:21:46.781Z,6.90
2022-10-13T16:25:49.962Z,7.07
2022-10-13T16:27:51.829Z,7.25
2022-10-13T16:29:53.373Z,7.80
2022-10-13T16:31:54.888Z,6.88
2022-10-13T16:33:56.699Z,7.50
2022-10-13T16:36:02.532Z,7.20
2022-10-13T16:38:04.156Z,7.18
2022-10-13T16:40:06.141Z,6.68
2022-10-13T16:42:07.659Z,7.38
2022-10-13T16:44:09.297Z,6.90
2022-10-13T16:46:14.827Z,7.60
2022-10-13T16:48:16.427Z,7.00
2022-10-13T16:50:17.983Z,7.65
2022-10-13T16:52:19.900Z,7.47
2022-10-13T16:54:21.428Z,7.88
2022-10-13T16:56:23.996Z,16.83
2022-10-13T16:58:25.774Z,7.22
2022-10-13T17:00:27.355Z,7.57
2022-10-13T17:02:28.870Z,7.68
2022-10-13T17:04:30.941Z,7.57
2022-10-13T17:06:33.118Z,7.80
2022-10-13T17:08:34.683Z,7.50
2022-10-13T17:10:36.430Z,7.72
2022-10-13T17:12:37.935Z,9.75
2022-10-13T17:14:39.595Z,9.48
2022-10-13T17:16:41.789Z,10.68
2022-10-13T17:18:43.430Z,10.45
2022-10-13T17:20:52.314Z,10.00
2022-10-13T17:22:54.636Z,9.73
2022-10-13T17:24:56.260Z,8.97
2022-10-13T17:26:57.918Z,9.43
2022-10-13T17:28:59.731Z,8.52
2022-10-13T17:31:04.063Z,9.52
2022-10-13T17:33:05.623Z,9.38
2022-10-13T17:35:07.624Z,9.70
2022-10-13T17:37:09.365Z,9.65
2022-10-13T17:39:11.282Z,9.68
2022-10-13T17:41:13.074Z,10.57
2022-10-13T17:43:14.615Z,10.02
2022-10-13T17:45:16.218Z,9.52
2022-10-13T17:47:18.332Z,9.88
2022-10-13T17:49:20.183Z,11.02
2022-10-13T17:51:21.732Z,10.95
2022-10-13T17:53:23.468Z,10.95
2022-10-13T17:55:25.011Z,10.88
2022-10-13T17:57:26.555Z,11.07
2022-10-13T17:59:28.307Z,10.82
2022-10-13T18:01:31.719Z,11.70
2022-10-13T18:03:34.159Z,11.60
2022-10-13T18:05:41.885Z,10.95
2022-10-13T18:07:43.455Z,10.57
2022-10-13T18:09:45.197Z,10.63
2022-10-13T18:11:50.619Z,10.93
2022-10-13T18:13:53.121Z,11.00
2022-10-13T18:15:54.610Z,11.48
2022-10-13T18:17:56.384Z,11.60
2022-10-13T18:19:58.638Z,12.02
2022-10-13T18:22:00.242Z,12.10
2022-10-13T18:24:02.469Z,11.10
2022-10-13T18:26:05.417Z,10.70
2022-10-13T18:28:08.015Z,10.07
2022-10-13T18:30:10.100Z,9.93
2022-10-13T18:32:11.764Z,9.05
2022-10-13T18:34:14.687Z,10.32
2022-10-13T18:36:19.709Z,8.90
2022-10-13T18:38:23.008Z,9.45
2022-10-13T18:40:24.624Z,9.95
2022-10-13T18:42:27.821Z,10.27
2022-10-13T18:46:31.779Z,10.32
2022-10-13T18:48:34.244Z,10.80
2022-10-13T18:50:36.238Z,10.57
2022-10-13T18:52:38.244Z,11.15
2022-10-13T18:54:39.973Z,10.13
2022-10-13T18:56:41.567Z,10.75
2022-10-13T18:58:43.313Z,11.50
2022-10-13T19:00:45.048Z,10.85
2022-10-13T19:02:46.630Z,11.98
2022-10-13T19:04:48.229Z,13.00
2022-10-13T19:06:50.062Z,13.27
2022-10-13T19:08:51.663Z,13.27
2022-10-13T19:10:53.289Z,13.75
2022-10-13T19:12:55.044Z,13.85
2022-10-13T19:14:57.991Z,14.02
2022-10-13T19:19:04.251Z,14.82
2022-10-13T19:21:06.357Z,14.70
2022-10-13T19:23:14.157Z,14.10
2022-10-13T19:25:15.913Z,14.30
2022-10-13T19:27:17.507Z,13.65
2022-10-13T19:29:19.194Z,13.43
2022-10-13T19:31:22.319Z,13.93
2022-10-13T19:33:23.904Z,15.45
2022-10-13T19:35:25.529Z,14.40
2022-10-13T19:37:27.301Z,14.30
2022-10-13T19:39:29.318Z,14.82
2022-10-13T19:41:31.908Z,14.67
2022-10-13T19:43:33.838Z,14.05
2022-10-13T19:45:35.419Z,14.45
2022-10-13T19:47:37.439Z,13.68
2022-10-13T19:49:39.263Z,14.73
2022-10-13T19:51:43.983Z,14.10
2022-10-13T19:53:45.536Z,15.20
2022-10-13T19:55:47.898Z,15.05
2022-10-13T19:57:49.378Z,15.37
2022-10-13T19:59:50.913Z,16.70
2022-10-13T20:01:52.781Z,15.52
2022-10-13T20:03:54.637Z,15.18
2022-10-13T20:05:56.138Z,16.73
2022-10-13T20:07:57.967Z,16.20
2022-10-13T20:09:59.507Z,17.23
2022-10-13T20:12:01.077Z,15.32
2022-10-13T20:14:02.928Z,15.90
2022-10-13T20:16:05.554Z,15.57
2022-10-13T20:18:08.364Z,15.75
2022-10-13T20:22:11.803Z,15.45
2022-10-13T20:24:13.360Z,16.23
2022-10-13T20:26:15.114Z,17.08
2022-10-13T20:28:18.320Z,17.45
2022-10-13T20:30:20.306Z,18.00
2022-10-13T20:32:22.049Z,18.02
2022-10-13T20:34:23.715Z,17.55
2022-10-13T20:36:26.066Z,17.17
2022-10-13T20:38:31.946Z,16.73
2022-10-13T20:40:33.588Z,16.58
2022-10-13T20:42:35.110Z,17.42
2022-10-13T20:44:36.995Z,17.17
2022-10-13T20:46:38.524Z,17.40
2022-10-13T20:49:08.863Z,17.35
2022-10-13T20:51:04.406Z,18.00
2022-10-13T20:55:07.738Z,18.98
2022-10-13T20:57:09.454Z,17.33
2022-10-13T20:59:12.627Z,17.98
2022-10-13T21:01:14.683Z,19.60
2022-10-13T21:03:18.374Z,18.40
2022-10-13T21:05:19.914Z,19.27
2022-10-13T21:07:22.044Z,18.50
2022-10-13T21:09:24.088Z,18.85
2022-10-13T21:11:25.817Z,19.42
2022-10-13T21:13:27.601Z,19.08
2022-10-13T21:15:29.426Z,18.08
2022-10-13T21:17:31.334Z,17.42
2022-10-13T21:19:33.152Z,19.02
2022-10-13T21:21:36.012Z,19.08
2022-10-13T21:23:38.040Z,19.73
2022-10-13T21:25:39.946Z,18.90
2022-10-13T21:27:41.781Z,19.43
2022-10-13T21:29:43.276Z,20.20
2022-10-13T21:31:44.878Z,20.23
2022-10-13T21:33:46.874Z,19.42
2022-10-13T21:35:48.431Z,19.75
2022-10-13T21:37:50.341Z,20.42
2022-10-13T21:39:53.371Z,19.13
2022-10-13T21:41:54.889Z,20.40
2022-10-13T21:43:56.455Z,20.50
2022-10-13T21:46:07.432Z,20.83
2022-10-13T21:48:09.028Z,21.02
2022-10-13T21:50:10.535Z,21.92
2022-10-13T21:52:13.647Z,21.17
2022-10-13T21:54:15.217Z,21.23
2022-10-13T21:56:16.890Z,20.98
2022-10-13T21:58:18.850Z,20.50
2022-10-13T22:00:20.376Z,21.00
2022-10-13T22:02:21.889Z,21.13
2022-10-13T22:04:23.803Z,21.60
2022-10-13T22:06:25.919Z,22.13
2022-10-13T22:08:37.859Z,22.65
2022-10-13T22:10:40.524Z,21.98
2022-10-13T22:12:42.038Z,23.02
2022-10-13T22:14:43.668Z,21.52
2022-10-13T22:16:46.876Z,22.25
2022-10-13T22:20:49.995Z,22.23
2022-10-13T22:22:51.701Z,22.33
2022-10-13T22:24:53.333Z,22.13
2022-10-13T22:26:54.907Z,22.13
2022-10-13T22:28:57.647Z,22.40
2022-10-13T22:31:03.293Z,23.63
2022-10-13T22:33:04.913Z,22.30
2022-10-13T22:35:06.817Z,22.42
2022-10-13T22:37:08.334Z,22.58
2022-10-13T22:39:09.887Z,22.88
2022-10-13T22:41:13.119Z,23.42
2022-10-13T22:45:16.128Z,22.58
2022-10-13T22:47:17.869Z,22.52
2022-10-13T22:49:19.363Z,23.08
2022-10-13T22:51:22.516Z,22.40
2022-10-13T22:53:24.233Z,23.40
2022-10-13T22:55:25.792Z,24.02
2022-10-13T22:57:27.310Z,24.58
2022-10-13T22:59:29.007Z,23.35
2022-10-13T23:01:30.568Z,22.65
2022-10-13T23:03:32.159Z,23.45
2022-10-13T23:05:34.174Z,23.27
2022-10-13T23:07:35.889Z,23.92
2022-10-13T23:09:37.705Z,22.33
2022-10-13T23:11:39.456Z,22.77
2022-10-13T23:13:41.303Z,24.17
2022-10-13T23:17:46.110Z,23.27
2022-10-13T23:19:47.691Z,23.25
2022-10-13T23:21:49.594Z,22.52
2022-10-13T23:23:55.227Z,22.10
2022-10-13T23:26:00.734Z,22.90
2022-10-13T23:28:02.931Z,23.48
2022-10-13T23:30:05.309Z,23.35
2022-10-13T23:32:09.792Z,23.08
2022-10-13T23:34:11.824Z,22.02
2022-10-13T23:36:14.996Z,22.45
2022-10-13T23:38:16.567Z,23.73
2022-10-13T23:40:18.151Z,23.17
2022-10-13T23:42:19.905Z,22.25
2022-10-13T23:44:21.598Z,23.23
2022-10-13T23:46:23.248Z,22.23
2022-10-13T23:48:25.392Z,23.45
2022-10-13T23:50:27.124Z,23.20
2022-10-13T23:52:28.722Z,23.20
2022-10-13T23:54:31.047Z,23.25
2022-10-13T23:56:32.664Z,23.35
2022-10-13T23:58:38.239Z,22.33
